Time;durP1;ratioP1;P1;durP2;ratioP2;P2;SDS_P1;SDS_P2;PMS_P1;PMS_P2;Temp;Humidity;BMP_temperature;BMP_pressure;BME280_temperature;BME280_humidity;BME280_pressure;Samples;Min_cycle;Max_cycle;Signal;HPM_P1;HPM_P2
2022/01/27 00:03:24;;;;;;;200.07;159.13;;;;;;;14.33;29.95;94682.06;5049031;28;20279;-67
2022/01/27 00:06:27;;;;;;;212.13;170.30;;;;;;;14.32;30.07;94688.63;5043941;28;20072;-67
2022/01/27 00:08:55;;;;;;;197.82;158.55;;;;;;;14.34;30.25;94680.88;5036282;28;20160;-66
2022/01/27 00:11:20;;;;;;;197.55;158.98;;;;;;;14.33;30.25;94698.19;5044905;28;20132;-66
2022/01/27 00:13:56;;;;;;;201.70;162.23;;;;;;;14.33;30.27;94700.91;5049918;28;20052;-67
2022/01/27 00:16:28;;;;;;;197.25;159.10;;;;;;;14.32;30.16;94704.00;5046208;28;20041;-67
2022/01/27 00:18:55;;;;;;;194.32;156.32;;;;;;;14.34;30.11;94696.28;5046502;28;20033;-67
2022/01/27 00:21:26;;;;;;;201.95;164.07;;;;;;;14.34;30.24;94683.56;5044955;28;20112;-67
2022/01/27 00:23:52;;;;;;;202.90;162.50;;;;;;;14.36;30.21;94681.25;5049464;28;20044;-67
2022/01/27 00:26:19;;;;;;;196.35;159.10;;;;;;;14.36;30.18;94685.84;5048704;28;20044;-67
2022/01/27 00:28:48;;;;;;;198.57;161.90;;;;;;;14.35;30.42;94678.97;5050163;28;20110;-67
2022/01/27 00:31:15;;;;;;;198.10;159.30;;;;;;;14.35;30.44;94673.56;5046523;28;20044;-67
2022/01/27 00:33:41;;;;;;;200.80;162.75;;;;;;;14.36;30.34;94675.84;5046091;28;20044;-67
2022/01/27 00:36:07;;;;;;;198.98;162.18;;;;;;;14.36;30.13;94672.41;5045862;28;20539;-67
2022/01/27 00:38:32;;;;;;;199.27;160.20;;;;;;;14.34;30.11;94664.75;5047804;28;20432;-67
2022/01/27 00:40:59;;;;;;;211.40;171.13;;;;;;;14.34;30.29;94659.38;5046550;28;20072;-67
2022/01/27 00:43:25;;;;;;;195.20;157.65;;;;;;;14.34;30.24;94650.53;5044504;28;20562;-67
2022/01/27 00:45:51;;;;;;;197.63;160.25;;;;;;;14.35;30.19;94646.66;5048489;28;20732;-67
2022/01/27 00:48:17;;;;;;;198.93;160.60;;;;;;;14.33;30.34;94646.31;5046413;28;20067;-67
2022/01/27 00:50:47;;;;;;;203.45;162.27;;;;;;;14.35;30.39;94647.44;5044913;28;20048;-67
2022/01/27 00:53:27;;;;;;;;;;;;;;;14.35;30.18;94649.38;5047632;28;20116;-67
2022/01/27 00:55:54;;;;;;;193.50;151.40;;;;;;;14.31;30.12;94652.13;5049437;28;19939;-67
2022/01/27 00:58:37;;;;;;;204.63;162.63;;;;;;;14.33;30.13;94657.84;5049240;28;20091;-67
2022/01/27 01:01:08;;;;;;;199.48;160.60;;;;;;;14.33;30.12;94659.78;5046371;28;20993;-67
2022/01/27 01:03:39;;;;;;;197.88;156.52;;;;;;;14.32;30.06;94655.56;5048867;28;22060;-67
2022/01/27 01:06:24;;;;;;;196.30;158.90;;;;;;;14.31;30.08;94662.88;5049536;28;20056;-68
2022/01/27 01:17:08;;;;;;;201.75;160.63;;;;;;;14.29;30.18;94672.56;5045259;28;20517;-67
2022/01/27 01:33:09;;;;;;;195.80;156.93;;;;;;;14.31;29.87;94651.34;5048336;28;20033;-67
2022/01/27 01:35:50;;;;;;;195.80;157.15;;;;;;;14.29;29.97;94646.41;5046655;28;20036;-67
2022/01/27 01:38:19;;;;;;;196.82;156.43;;;;;;;14.30;29.92;94645.22;5045905;28;20063;-67
2022/01/27 01:40:47;;;;;;;196.65;156.55;;;;;;;14.29;29.95;94643.72;5044156;28;20437;-66
2022/01/27 01:43:13;;;;;;;212.05;168.25;;;;;;;14.28;29.91;94630.69;5044059;28;20594;-67
2022/01/27 01:45:39;;;;;;;192.45;154.60;;;;;;;14.28;30.43;94636.06;5047219;28;20041;-67
2022/01/27 01:48:05;;;;;;;198.75;159.63;;;;;;;14.28;30.00;94620.69;5044649;28;20044;-67
2022/01/27 01:50:31;;;;;;;200.25;161.13;;;;;;;14.29;29.95;94605.31;5044523;28;20170;-67
2022/01/27 01:52:56;;;;;;;192.68;155.55;;;;;;;14.29;30.37;94618.75;5046940;28;20041;-67
2022/01/27 01:55:22;;;;;;;199.15;160.82;;;;;;;14.29;29.97;94599.94;5045363;28;20048;-67
2022/01/27 01:57:50;;;;;;;194.20;156.60;;;;;;;14.28;30.07;94623.38;5047076;28;20044;-67
2022/01/27 02:00:16;;;;;;;196.65;156.80;;;;;;;14.29;30.12;94619.50;5045900;28;20052;-66
2022/01/27 02:02:42;;;;;;;189.90;154.35;;;;;;;14.30;29.93;94628.34;5045879;28;20105;-67
2022/01/27 02:05:08;;;;;;;191.18;152.23;;;;;;;14.29;30.10;94632.97;5045456;28;20052;-67
2022/01/27 02:10:31;;;;;;;194.32;155.95;;;;;;;14.29;30.23;94638.34;5045284;28;20124;-67
2022/01/27 02:18:26;;;;;;;193.63;154.38;;;;;;;14.27;30.05;94632.63;5047425;28;20052;-66
2022/01/27 02:20:52;;;;;;;196.13;156.70;;;;;;;14.27;30.18;94639.94;5044469;28;20405;-66
2022/01/27 02:23:18;;;;;;;201.32;159.70;;;;;;;14.27;30.10;94627.25;5045026;28;20048;-66
2022/01/27 02:25:43;;;;;;;199.48;160.07;;;;;;;14.26;30.09;94628.41;5045452;28;20098;-66
2022/01/27 02:28:09;;;;;;;194.90;154.65;;;;;;;14.28;30.15;94630.69;5043264;28;20465;-66
2022/01/27 02:30:35;;;;;;;199.30;159.40;;;;;;;14.27;30.03;94624.56;5040995;28;22876;-67
2022/01/27 02:33:01;;;;;;;198.82;158.77;;;;;;;14.27;29.95;94629.94;5040311;28;20045;-66
2022/01/27 02:35:29;;;;;;;197.85;157.95;;;;;;;14.27;30.04;94631.88;5042812;28;20611;-67
2022/01/27 02:37:55;;;;;;;194.57;154.23;;;;;;;14.27;29.91;94629.19;5042968;28;20048;-66
2022/01/27 02:40:28;;;;;;;194.50;157.02;;;;;;;14.25;29.69;94632.28;5041606;28;20585;-66
2022/01/27 02:42:54;;;;;;;193.80;154.80;;;;;;;14.26;29.97;94627.66;5046238;28;20041;-66
2022/01/27 02:45:32;;;;;;;194.50;153.73;;;;;;;14.26;30.01;94624.97;5042949;28;20055;-66
2022/01/27 02:47:58;;;;;;;190.00;151.07;;;;;;;14.26;29.95;94622.28;5045584;28;20050;-67
2022/01/27 02:50:24;;;;;;;197.40;158.30;;;;;;;14.26;29.83;94612.28;5046335;28;20049;-66
2022/01/27 02:52:49;;;;;;;198.40;158.70;;;;;;;14.26;29.95;94620.34;5043405;28;20048;-66
2022/01/27 02:55:15;;;;;;;197.35;159.75;;;;;;;14.26;29.89;94619.59;5042434;28;20144;-67
2022/01/27 02:57:41;;;;;;;195.40;155.75;;;;;;;14.26;29.88;94606.88;5042670;28;20057;-67
2022/01/27 03:00:07;;;;;;;201.30;160.07;;;;;;;14.26;29.85;94611.50;5052134;28;20056;-67
2022/01/27 03:02:35;;;;;;;204.38;163.80;;;;;;;14.26;29.81;94614.22;5042018;28;20116;-66
2022/01/27 03:05:01;;;;;;;197.68;156.63;;;;;;;14.25;29.94;94601.94;5044116;28;20102;-66
2022/01/27 03:07:26;;;;;;;198.43;158.40;;;;;;;14.25;29.37;94602.69;5047794;28;20049;-66
2022/01/27 03:09:54;;;;;;;192.15;154.00;;;;;;;14.25;29.81;94610.00;5046887;28;20486;-66
2022/01/27 03:12:23;;;;;;;193.00;154.18;;;;;;;14.26;29.97;94606.88;5044023;28;20072;-66
2022/01/27 03:14:49;;;;;;;198.50;156.00;;;;;;;14.26;29.85;94601.50;5043384;28;20049;-66
2022/01/27 03:17:15;;;;;;;199.70;158.30;;;;;;;14.25;29.70;94597.31;5043173;28;20090;-66
2022/01/27 03:19:41;;;;;;;196.48;157.35;;;;;;;14.24;29.81;94595.03;5042310;28;20055;-66
2022/01/27 03:22:08;;;;;;;195.88;153.57;;;;;;;14.25;30.03;94589.22;5042527;28;20048;-67
2022/01/27 03:24:35;;;;;;;194.68;154.75;;;;;;;14.24;30.04;94586.97;5042923;28;20507;-66
2022/01/27 03:27:01;;;;;;;199.80;158.18;;;;;;;14.24;29.76;94589.66;5041943;28;20049;-67
2022/01/27 03:29:27;;;;;;;195.20;155.07;;;;;;;14.23;29.83;94588.88;5041778;28;20057;-66
2022/01/27 03:31:54;;;;;;;194.48;155.23;;;;;;;14.24;29.72;94590.41;5044888;28;20049;-66
2022/01/27 03:34:20;;;;;;;200.57;159.68;;;;;;;14.24;29.89;94578.88;5045743;28;20032;-66
2022/01/27 03:36:46;;;;;;;197.05;157.13;;;;;;;14.24;29.59;94576.97;5041568;28;20068;-66
2022/01/27 03:39:16;;;;;;;197.07;157.25;;;;;;;14.24;29.79;94568.13;5044031;28;20432;-67
2022/01/27 03:41:48;;;;;;;192.13;152.00;;;;;;;14.25;29.78;94588.47;5046850;28;20163;-67
2022/01/27 03:44:15;;;;;;;195.38;154.93;;;;;;;14.25;29.78;94573.09;5041765;28;20109;-67
2022/01/27 03:46:40;;;;;;;195.57;153.65;;;;;;;14.25;29.72;94572.34;5045772;28;20123;-67
2022/01/27 03:49:06;;;;;;;192.75;153.82;;;;;;;14.25;29.77;94553.50;5045212;28;20076;-66
2022/01/27 03:51:32;;;;;;;195.38;153.77;;;;;;;14.25;29.94;94566.94;5043429;28;20045;-66
2022/01/27 03:53:57;;;;;;;197.32;156.10;;;;;;;14.24;29.84;94568.13;5044981;28;20112;-66
2022/01/27 03:56:23;;;;;;;197.48;157.63;;;;;;;14.24;29.77;94573.50;5042919;28;20056;-66
2022/01/27 03:58:48;;;;;;;195.75;155.98;;;;;;;14.23;29.78;94564.69;5042512;28;20053;-66
2022/01/27 04:01:14;;;;;;;194.05;155.52;;;;;;;14.23;29.83;94564.69;5041106;28;20709;-67
2022/01/27 04:03:40;;;;;;;196.00;154.70;;;;;;;14.22;29.96;94579.31;5039667;28;20076;-67
2022/01/27 04:06:09;;;;;;;193.10;152.95;;;;;;;14.22;29.76;94563.16;5044282;28;20198;-66
2022/01/27 04:08:37;;;;;;;203.05;160.20;;;;;;;14.21;29.73;94572.41;5038809;28;20064;-67
2022/01/27 04:11:08;;;;;;;196.13;154.35;;;;;;;14.21;29.77;94564.34;5043009;28;20131;-66
2022/01/27 04:13:34;;;;;;;204.93;162.13;;;;;;;14.21;29.86;94568.97;5042049;28;20049;-66
2022/01/27 04:15:59;;;;;;;195.60;156.65;;;;;;;14.21;29.67;94558.94;5039174;28;20049;-66
2022/01/27 04:18:25;;;;;;;193.98;155.25;;;;;;;14.21;29.82;94560.88;5040588;28;20826;-67
2022/01/27 04:20:51;;;;;;;200.25;158.40;;;;;;;14.22;29.73;94557.78;5038412;28;20064;-66
2022/01/27 04:23:18;;;;;;;196.95;155.40;;;;;;;14.21;29.72;94571.66;5037527;28;20056;-67
2022/01/27 04:25:44;;;;;;;201.00;160.43;;;;;;;14.21;29.83;94574.34;5042017;28;20067;-66
2022/01/27 04:28:13;;;;;;;197.52;156.13;;;;;;;14.21;29.83;94585.09;5041506;28;20040;-66
2022/01/27 04:30:39;;;;;;;194.82;155.30;;;;;;;14.21;30.06;94591.25;5040930;28;20055;-66
2022/01/27 04:33:06;;;;;;;197.45;156.68;;;;;;;14.21;29.76;94583.16;5039652;28;20040;-66
2022/01/27 04:35:35;;;;;;;199.15;158.27;;;;;;;14.21;29.62;94585.09;5039697;28;20056;-67
2022/01/27 04:40:38;;;;;;;199.23;157.65;;;;;;;14.18;29.68;94571.31;5043828;28;20056;-67
2022/01/27 04:43:12;;;;;;;196.80;155.00;;;;;;;14.19;29.96;94564.00;5045840;28;20048;-66
2022/01/27 04:45:53;;;;;;;192.75;151.98;;;;;;;14.17;29.81;94559.03;5044613;28;20056;-66
2022/01/27 04:48:21;;;;;;;188.60;149.35;;;;;;;14.19;29.87;94558.63;5044798;28;20036;-66
2022/01/27 04:50:47;;;;;;;192.98;151.95;;;;;;;14.19;29.86;94550.53;5046009;28;20048;-66
2022/01/27 04:53:29;;;;;;;197.70;157.63;;;;;;;14.18;29.65;94559.78;5045037;28;20044;-66
2022/01/27 04:55:56;;;;;;;195.27;154.25;;;;;;;14.18;29.60;94549.78;5045678;28;20416;-67
2022/01/27 04:58:29;;;;;;;190.32;151.70;;;;;;;14.21;29.79;94550.88;5043130;28;20045;-66
2022/01/27 05:00:58;;;;;;;193.55;153.10;;;;;;;14.21;29.64;94550.88;5045282;28;20068;-67
2022/01/27 05:03:34;;;;;;;198.85;156.07;;;;;;;14.22;29.59;94563.16;5043987;28;20056;-67
2022/01/27 05:06:01;;;;;;;191.55;151.40;;;;;;;14.22;29.84;94552.41;5046192;28;20049;-67
2022/01/27 05:08:26;;;;;;;196.68;155.55;;;;;;;14.23;29.81;94559.31;5046295;28;20938;-67
2022/01/27 05:10:57;;;;;;;199.63;158.23;;;;;;;14.24;29.75;94560.06;5045308;28;20106;-67
2022/01/27 05:13:25;;;;;;;200.82;159.93;;;;;;;14.24;29.77;94563.50;5046013;28;20052;-65
2022/01/27 05:15:51;;;;;;;195.48;155.25;;;;;;;14.25;29.64;94562.34;5041468;28;20049;-67
2022/01/27 05:18:17;;;;;;;193.07;153.00;;;;;;;14.26;29.61;94553.09;5043798;28;20053;-64
2022/01/27 05:20:43;;;;;;;197.82;156.43;;;;;;;14.28;29.70;94555.38;5043042;28;20049;-63
2022/01/27 05:23:09;;;;;;;202.88;161.65;;;;;;;14.28;29.60;94550.75;5041864;28;20472;-65
2022/01/27 05:25:34;;;;;;;194.05;154.27;;;;;;;14.29;29.75;94551.50;5044743;28;20041;-64
2022/01/27 05:28:00;;;;;;;194.88;155.93;;;;;;;14.30;29.60;94559.13;5045409;28;20056;-65
2022/01/27 05:30:26;;;;;;;195.25;155.15;;;;;;;14.32;29.68;94548.72;5045149;28;20062;-66
2022/01/27 05:32:52;;;;;;;190.75;153.35;;;;;;;14.33;29.71;94546.78;5045913;28;20052;-64
2022/01/27 05:35:18;;;;;;;191.23;153.73;;;;;;;14.34;29.58;94550.97;5044689;28;20094;-67
2022/01/27 05:37:43;;;;;;;192.90;154.38;;;;;;;14.35;29.63;94552.50;5046269;28;20037;-65
2022/01/27 05:40:09;;;;;;;197.63;157.20;;;;;;;14.35;29.58;94553.25;5047808;28;20102;-68
2022/01/27 05:42:34;;;;;;;204.68;164.10;;;;;;;14.36;29.37;94556.72;5048679;28;20060;-67
2022/01/27 05:45:00;;;;;;;192.15;153.02;;;;;;;14.37;29.56;94544.78;5046390;28;22680;-67
2022/01/27 05:47:26;;;;;;;191.57;152.68;;;;;;;14.38;29.63;94544.34;5048280;28;20106;-67
2022/01/27 05:49:51;;;;;;;189.52;151.65;;;;;;;14.40;29.52;94536.63;5045869;28;20409;-67
2022/01/27 05:52:17;;;;;;;198.13;158.02;;;;;;;14.40;29.55;94536.63;5045360;28;20458;-67
2022/01/27 05:54:42;;;;;;;187.52;149.48;;;;;;;14.42;29.74;94528.91;5043488;28;20060;-67
2022/01/27 05:57:08;;;;;;;193.60;154.93;;;;;;;14.42;29.46;94522.78;5044151;28;20460;-67
2022/01/27 05:59:34;;;;;;;188.50;150.43;;;;;;;14.43;29.44;94533.13;5042524;28;20052;-67
2022/01/27 06:02:00;;;;;;;191.48;153.75;;;;;;;14.43;29.53;94530.44;5044221;28;20417;-67
2022/01/27 06:04:26;;;;;;;194.63;156.18;;;;;;;14.44;29.34;94523.88;5043773;28;20049;-67
2022/01/27 06:06:53;;;;;;;194.13;155.27;;;;;;;14.43;29.53;94514.28;5046102;28;20106;-67
2022/01/27 06:09:19;;;;;;;195.55;154.77;;;;;;;14.47;29.57;94516.91;5046611;28;20071;-67
2022/01/27 06:11:44;;;;;;;190.68;152.30;;;;;;;14.46;29.54;94508.06;5043827;28;20045;-67
2022/01/27 06:14:10;;;;;;;191.27;152.65;;;;;;;14.48;29.46;94521.13;5045193;28;20049;-67
2022/01/27 06:16:35;;;;;;;190.77;152.68;;;;;;;14.48;29.28;94502.28;5044534;28;20057;-67
2022/01/27 06:19:02;;;;;;;193.00;154.07;;;;;;;14.47;29.63;94509.59;5044235;28;20048;-67
2022/01/27 06:21:28;;;;;;;192.63;155.32;;;;;;;14.48;29.65;94519.19;5047229;28;20048;-67
2022/01/27 06:23:53;;;;;;;192.52;153.55;;;;;;;14.49;29.51;94504.56;5042204;28;20045;-67
2022/01/27 06:26:19;;;;;;;195.65;158.15;;;;;;;14.48;29.45;94513.03;5046008;28;20380;-67
2022/01/27 06:28:44;;;;;;;186.60;149.18;;;;;;;14.48;29.38;94513.81;5043173;28;20244;-67
2022/01/27 06:31:10;;;;;;;196.43;158.30;;;;;;;14.49;29.39;94507.25;5041683;28;20044;-67
2022/01/27 06:33:35;;;;;;;199.40;158.50;;;;;;;14.53;29.48;94514.47;5041715;28;20106;-67
2022/01/27 06:36:01;;;;;;;194.05;154.57;;;;;;;14.50;29.47;94506.06;5045377;28;20086;-67
2022/01/27 06:38:27;;;;;;;189.85;152.95;;;;;;;14.52;29.75;94510.28;5044704;28;20516;-67
2022/01/27 06:40:52;;;;;;;195.20;156.43;;;;;;;14.50;29.51;94510.69;5047885;28;20673;-67
2022/01/27 06:43:18;;;;;;;196.05;157.25;;;;;;;14.53;29.46;94515.22;5040362;28;20037;-68
2022/01/27 06:45:43;;;;;;;187.50;149.23;;;;;;;14.52;29.60;94513.72;5042740;28;20137;-68
2022/01/27 06:48:09;;;;;;;195.05;156.25;;;;;;;14.52;29.57;94511.03;5042802;28;20059;-68
2022/01/27 06:50:37;;;;;;;191.95;153.40;;;;;;;14.50;29.73;94502.63;5042283;28;20051;-67
2022/01/27 06:53:02;;;;;;;195.60;155.98;;;;;;;14.52;29.53;94507.56;5046537;28;20118;-68
2022/01/27 06:55:28;;;;;;;192.10;154.20;;;;;;;14.53;29.35;94511.78;5044608;28;20048;-68
2022/01/27 06:57:54;;;;;;;194.63;156.18;;;;;;;14.53;29.53;94507.16;5043734;28;20084;-68
2022/01/27 07:00:19;;;;;;;196.73;158.10;;;;;;;14.53;29.37;94514.47;5042887;28;20500;-68
2022/01/27 07:02:45;;;;;;;191.63;153.18;;;;;;;14.53;29.47;94519.84;5041850;28;20060;-68
2022/01/27 07:05:14;;;;;;;193.32;155.02;;;;;;;14.52;29.27;94508.34;5042893;28;20096;-68
2022/01/27 07:07:40;;;;;;;194.57;157.15;;;;;;;14.52;29.23;94516.41;5043616;28;20045;-68
2022/01/27 07:10:06;;;;;;;190.85;153.25;;;;;;;14.53;29.51;94511.78;5046794;28;20133;-68
2022/01/27 07:12:32;;;;;;;201.95;162.93;;;;;;;14.52;28.99;94502.94;5047215;28;20072;-68
2022/01/27 07:14:58;;;;;;;187.93;151.07;;;;;;;14.52;29.45;94507.56;5045033;28;20505;-68
2022/01/27 07:17:24;;;;;;;191.30;154.48;;;;;;;14.50;29.33;94508.00;5049145;28;20530;-67
2022/01/27 07:19:50;;;;;;;190.25;153.48;;;;;;;14.52;29.34;94505.66;5046181;28;20041;-68
2022/01/27 07:22:15;;;;;;;193.13;154.98;;;;;;;14.53;29.16;94515.22;5050253;28;20041;-68
2022/01/27 07:24:41;;;;;;;192.98;155.05;;;;;;;14.53;29.40;94503.72;5044912;28;20071;-68
2022/01/27 07:27:07;;;;;;;192.82;154.32;;;;;;;14.52;29.38;94508.34;5045000;28;20193;-68
2022/01/27 07:29:34;;;;;;;192.73;155.60;;;;;;;14.52;29.35;94502.94;5042730;28;20147;-67
2022/01/27 07:31:59;;;;;;;193.93;155.88;;;;;;;14.54;29.34;94510.59;5044009;28;20053;-67
2022/01/27 07:34:25;;;;;;;198.13;158.70;;;;;;;14.54;29.44;94505.97;5044593;28;20124;-66
2022/01/27 07:36:55;;;;;;;190.15;153.10;;;;;;;14.53;29.48;94496.41;5043547;28;20055;-68
2022/01/27 07:39:21;;;;;;;192.07;154.38;;;;;;;14.54;29.34;94491.78;5045204;28;20057;-67
2022/01/27 07:41:47;;;;;;;190.55;152.27;;;;;;;14.53;29.35;94501.03;5042694;28;20459;-68
2022/01/27 07:44:13;;;;;;;194.75;156.23;;;;;;;14.54;29.29;94508.69;5043136;28;20413;-68
2022/01/27 07:46:38;;;;;;;188.43;152.30;;;;;;;14.52;29.24;94496.81;5042441;28;20049;-68
2022/01/27 07:49:04;;;;;;;195.05;156.73;;;;;;;14.48;29.18;94500.34;5045644;28;20087;-65
2022/01/27 07:51:30;;;;;;;188.13;152.43;;;;;;;14.49;29.13;94504.56;5041023;28;20138;-65
2022/01/27 07:53:55;;;;;;;189.52;152.13;;;;;;;14.50;29.22;94505.31;5044221;28;20041;-65
2022/01/27 07:56:21;;;;;;;191.05;153.40;;;;;;;14.50;29.22;94511.44;5043657;28;20048;-66
2022/01/27 07:58:46;;;;;;;198.80;160.45;;;;;;;14.49;29.15;94515.31;5037437;28;20163;-65
2022/01/27 08:01:12;;;;;;;197.95;157.77;;;;;;;14.50;29.12;94516.06;5039390;28;20072;-65
2022/01/27 08:03:38;;;;;;;205.60;163.65;;;;;;;14.49;29.02;94515.31;5039532;28;20082;-66
2022/01/27 08:06:05;;;;;;;193.65;155.93;;;;;;;14.50;28.94;94510.69;5045394;28;20052;-65
2022/01/27 08:08:31;;;;;;;192.45;154.85;;;;;;;14.52;28.91;94512.97;5042919;28;20517;-65
2022/01/27 08:10:58;;;;;;;193.73;155.07;;;;;;;14.53;28.92;94511.78;5045359;28;20045;-65
2022/01/27 08:13:24;;;;;;;193.00;155.15;;;;;;;14.54;28.94;94518.69;5046818;28;20045;-65
2022/01/27 08:15:49;;;;;;;189.13;151.02;;;;;;;14.54;29.34;94521.38;5049539;28;20070;-65
2022/01/27 08:18:15;;;;;;;197.32;157.98;;;;;;;14.55;28.92;94537.09;5048405;28;20037;-65
2022/01/27 08:20:40;;;;;;;187.02;150.93;;;;;;;14.53;28.85;94533.31;5044289;28;20056;-65
2022/01/27 08:23:06;;;;;;;191.68;154.63;;;;;;;14.43;28.74;94532.38;5050196;28;20053;-64
2022/01/27 08:25:33;;;;;;;188.98;150.90;;;;;;;14.41;29.19;94534.69;5047673;28;20226;-65
2022/01/27 08:28:03;;;;;;;194.57;154.68;;;;;;;14.42;28.80;94542.38;5048443;28;20084;-65
2022/01/27 08:30:35;;;;;;;194.52;155.05;;;;;;;14.43;28.94;94540.44;5048791;28;20048;-65
2022/01/27 08:33:05;;;;;;;192.20;151.25;;;;;;;14.47;28.76;94533.81;5051728;28;20056;-66
2022/01/27 08:35:32;;;;;;;193.00;152.52;;;;;;;14.53;28.74;94531.38;5051812;28;20528;-66
2022/01/27 08:37:57;;;;;;;193.88;155.15;;;;;;;14.54;28.99;94530.22;5046037;28;20178;-65
2022/01/27 08:40:25;;;;;;;189.85;151.52;;;;;;;14.56;28.91;94533.25;5048044;28;20116;-65
2022/01/27 08:42:51;;;;;;;190.52;153.02;;;;;;;14.56;29.10;94533.25;5046956;28;20140;-66
2022/01/27 08:45:19;;;;;;;194.95;156.45;;;;;;;14.58;29.31;94538.97;5047614;28;20068;-65
2022/01/27 08:47:45;;;;;;;187.48;150.75;;;;;;;14.58;29.35;94538.22;5047193;28;20049;-66
2022/01/27 08:50:13;;;;;;;194.60;155.23;;;;;;;14.58;29.16;94536.28;5045819;28;20147;-65
2022/01/27 08:52:40;;;;;;;202.27;161.88;;;;;;;14.58;29.24;94538.22;5048419;28;20447;-65
2022/01/27 08:55:07;;;;;;;184.85;148.75;;;;;;;14.59;29.26;94523.56;5044064;28;20057;-65
2022/01/27 08:57:34;;;;;;;191.85;153.07;;;;;;;14.58;29.19;94522.81;5047868;28;20117;-66
2022/01/27 09:00:01;;;;;;;189.30;151.45;;;;;;;14.59;29.42;94523.56;5049988;28;20037;-65
2022/01/27 09:02:27;;;;;;;204.20;163.75;;;;;;;14.58;29.43;94522.06;5047116;28;20043;-66
2022/01/27 09:04:53;;;;;;;190.27;152.23;;;;;;;14.59;29.51;94518.94;5046543;28;20160;-66
2022/01/27 09:07:19;;;;;;;193.70;155.15;;;;;;;14.58;29.51;94520.13;5049958;28;20088;-65
2022/01/27 09:09:45;;;;;;;195.40;156.18;;;;;;;14.58;29.49;94512.06;5047118;28;20098;-66
2022/01/27 09:12:12;;;;;;;195.63;157.95;;;;;;;14.59;29.52;94518.94;5044186;28;20056;-66
2022/01/27 09:14:40;;;;;;;194.18;156.02;;;;;;;14.59;29.59;94516.25;5048535;28;20044;-65
2022/01/27 09:17:07;;;;;;;189.98;153.90;;;;;;;14.59;29.64;94518.94;5045599;28;20111;-65
2022/01/27 09:19:37;;;;;;;203.15;163.85;;;;;;;14.58;29.57;94516.69;5045958;28;20049;-65
2022/01/27 09:22:07;;;;;;;190.07;151.20;;;;;;;14.57;29.76;94513.22;5047323;28;20254;-66
2022/01/27 09:24:39;;;;;;;191.02;152.45;;;;;;;14.58;29.58;94525.50;5047923;28;20716;-65
2022/01/27 09:27:05;;;;;;;188.43;151.82;;;;;;;14.60;29.72;94525.09;5046820;28;20661;-65
2022/01/27 09:29:31;;;;;;;198.02;159.40;;;;;;;14.59;29.50;94520.88;5046809;28;20060;-65
2022/01/27 09:31:59;;;;;;;186.55;150.98;;;;;;;14.59;29.61;94521.63;5046680;28;20117;-65
2022/01/27 09:34:25;;;;;;;193.77;155.25;;;;;;;14.60;29.51;94523.16;5047639;28;20041;-65
2022/01/27 09:36:51;;;;;;;192.48;155.07;;;;;;;14.61;29.75;94521.22;5044481;28;20048;-69
2022/01/27 09:39:19;;;;;;;189.52;153.02;;;;;;;14.60;29.55;94522.41;5044161;28;20051;-68
2022/01/27 09:41:45;;;;;;;197.02;156.73;;;;;;;14.60;29.71;94523.16;5046497;28;20049;-67
2022/01/27 09:44:13;;;;;;;196.32;157.85;;;;;;;14.61;29.75;94529.28;5049173;28;20053;-67
2022/01/27 09:46:45;;;;;;;195.18;158.15;;;;;;;14.60;29.48;94523.16;5043490;28;20036;-66
2022/01/27 09:49:17;;;;;;;194.25;157.80;;;;;;;14.60;29.67;94522.41;5042430;28;20053;-66
2022/01/27 09:51:45;;;;;;;193.32;155.60;;;;;;;14.59;29.68;94516.25;5045836;28;20045;-67
2022/01/27 09:54:13;;;;;;;194.13;156.70;;;;;;;14.61;29.61;94513.91;5044274;28;20060;-66
2022/01/27 09:56:40;;;;;;;191.35;155.40;;;;;;;14.60;29.50;94507.00;5041823;28;20445;-66
2022/01/27 09:59:08;;;;;;;195.60;157.85;;;;;;;14.63;29.67;94510.78;5042318;28;20075;-66
2022/01/27 10:01:35;;;;;;;194.15;157.88;;;;;;;14.64;29.64;94496.16;5046874;28;20354;-66
2022/01/27 10:04:06;;;;;;;195.73;158.02;;;;;;;14.64;29.68;94496.91;5045182;28;20055;-66
2022/01/27 10:06:34;;;;;;;193.88;156.40;;;;;;;14.65;29.58;94497.66;5042346;28;20101;-66
2022/01/27 10:09:29;;;;;;;189.20;153.68;;;;;;;14.67;29.46;94495.31;5047410;28;20052;-66
2022/01/27 10:11:55;;;;;;;193.43;156.40;;;;;;;14.65;29.54;94495.75;5043723;28;20052;-66
2022/01/27 10:14:25;;;;;;;194.88;157.52;;;;;;;14.67;29.52;94488.00;5043536;28;20067;-66
2022/01/27 10:16:53;;;;;;;;;;;;;;;14.68;29.53;94491.44;5042752;28;20579;-65
2022/01/27 10:19:19;;;;;;;194.05;153.48;;;;;;;14.68;29.42;94483.38;5044148;28;20450;-66
2022/01/27 10:21:47;;;;;;;200.90;160.95;;;;;;;14.66;29.45;94489.19;5045027;28;20072;-65
2022/01/27 10:24:14;;;;;;;195.13;157.80;;;;;;;14.68;29.55;94486.81;5046192;28;20091;-66
2022/01/27 10:26:46;;;;;;;193.90;156.38;;;;;;;14.67;29.64;94479.94;5047718;28;20083;-66
2022/01/27 10:29:16;;;;;;;187.52;151.73;;;;;;;14.66;29.58;94474.97;5044812;28;20048;-66
2022/01/27 10:31:42;;;;;;;202.85;163.15;;;;;;;14.64;29.39;94464.63;5047588;28;20052;-66
2022/01/27 10:34:10;;;;;;;189.98;154.10;;;;;;;14.66;29.43;94466.88;5046931;28;20040;-66
2022/01/27 10:36:40;;;;;;;192.20;157.20;;;;;;;14.66;29.33;94464.94;5047604;28;20370;-66
2022/01/27 10:39:08;;;;;;;191.00;154.15;;;;;;;14.66;29.33;94464.19;5048248;28;20056;-66
2022/01/27 10:41:37;;;;;;;195.48;159.02;;;;;;;14.65;29.22;94458.06;5041775;28;20529;-65
2022/01/27 10:44:17;;;;;;;189.25;154.38;;;;;;;14.64;29.34;94451.16;5046810;28;20124;-66
2022/01/27 10:47:13;;;;;;;197.45;159.40;;;;;;;14.64;29.21;94447.72;5043613;28;20049;-66
2022/01/27 10:49:52;;;;;;;193.85;155.70;;;;;;;14.62;29.02;94450.06;5046603;28;20037;-65
2022/01/27 10:52:28;;;;;;;191.60;152.88;;;;;;;14.57;29.22;94443.25;5044873;28;20048;-65
2022/01/27 10:55:00;;;;;;;191.93;155.43;;;;;;;14.57;29.37;94440.56;5045948;28;20972;-66
2022/01/27 10:57:27;;;;;;;198.77;158.13;;;;;;;14.56;29.21;94439.03;5044913;28;20048;-66
2022/01/27 11:00:09;;;;;;;190.75;152.88;;;;;;;14.55;28.83;94426.00;5048351;28;20416;-66
2022/01/27 11:02:48;;;;;;;202.55;162.43;;;;;;;14.56;29.15;94430.22;5043798;28;20056;-65
2022/01/27 11:05:22;;;;;;;193.05;154.02;;;;;;;14.55;29.09;94432.16;5047134;28;20056;-66
2022/01/27 11:07:48;;;;;;;196.85;157.70;;;;;;;14.55;29.18;94437.53;5044146;28;20045;-66
2022/01/27 11:10:19;;;;;;;196.32;159.55;;;;;;;14.55;29.02;94423.31;5044735;28;20033;-65
2022/01/27 11:12:45;;;;;;;201.70;161.48;;;;;;;14.55;29.23;94421.38;5043021;28;20056;-66
2022/01/27 11:15:16;;;;;;;192.25;153.07;;;;;;;14.55;29.29;94415.25;5044945;28;20052;-67
2022/01/27 11:17:44;;;;;;;194.18;154.82;;;;;;;14.57;28.84;94402.88;5041061;28;20053;-66
2022/01/27 11:20:34;;;;;;;191.90;151.63;;;;;;;14.57;29.03;94400.19;5025221;28;20060;-67
2022/01/27 11:23:11;;;;;;;199.35;157.82;;;;;;;14.59;29.12;94402.44;5041437;28;20398;-67
2022/01/27 11:28:05;;;;;;;193.20;154.57;;;;;;;14.63;29.21;94397.75;5045951;28;20631;-66
2022/01/27 11:30:58;;;;;;;193.30;154.25;;;;;;;14.63;29.14;94393.13;5044706;28;20109;-65
2022/01/27 11:33:34;;;;;;;202.65;159.40;;;;;;;14.63;28.63;94384.28;5040809;28;20041;-65
2022/01/27 11:36:19;;;;;;;193.25;152.32;;;;;;;14.60;28.57;94385.88;5045782;28;20053;-65
2022/01/27 11:38:46;;;;;;;192.40;151.80;;;;;;;14.58;28.89;94380.16;5038349;28;20052;-65
2022/01/27 11:41:39;;;;;;;198.13;158.52;;;;;;;14.58;28.63;94380.16;5042646;28;20061;-65
2022/01/27 11:44:25;;;;;;;195.50;154.13;;;;;;;14.59;28.59;94379.00;5039185;28;20520;-66